Wednesday, August 15, 2018, 12:49 AM EDT
Back to Local

KGTB, Fort Drum / Wheeler-sack U. S. Army Airfield

Location: Fort Drum, NY, United States Lat: 44.05
Local Time: 12:49 AM EDT ( 4:49 GMT) Lon: -75.733
Time Zone: US/Eastern Elev: 679 ft

Show me the last for .
Show Decoded

2018-08-14 23:56 METAR KGTB 150356Z AUTO 23003KT 10SM SCT060 BKN100 21/21 A2984 RMK AO2 SLPNO
                 T02140214 TSNO $ =
2018-08-14 22:56 METAR KGTB 150256Z AUTO 17004KT 10SM BKN080 OVC095 22/22 A2983 RMK AO2 SLPNO
                 T02190219 50006 TSNO $ =
2018-08-14 21:56 METAR KGTB 150156Z AUTO 29003KT 10SM SCT090 22/22 A2982 RMK AO2 SLPNO T02200220
                 TSNO $ =
2018-08-14 21:16 METAR KGTB 150116Z AUTO 30003KT 10SM FEW012 FEW021 23/23 A2983 RMK AO2 SLP099
                 TSNO $ =
2018-08-14 20:56 METAR KGTB 150056Z AUTO 31004KT 10SM FEW016 BKN024 BKN031 23/23 A2983 RMK AO2
                 CIG 021 RWY21 SLP099 T02300230 TSNO $ =
2018-08-14 20:46 METAR KGTB 150046Z AUTO 30004KT 10SM SCT017 BKN027 OVC034 23/23 A2983 RMK AO2
                 CIG 016V027 CIG 019 RWY21 SLP099 TSNO $ =
2018-08-14 20:16 METAR KGTB 150016Z AUTO 32006KT 10SM OVC017 24/24 A2981 RMK AO2 OVC V BKN SLP091
                 TSNO $ =
2018-08-14 19:56 METAR KGTB 142356Z AUTO 00000KT 10SM BKN022 OVC110 25/24 A2981 RMK AO2 CIG 020
                 RWY21 SLP091 60000 T02450238 10264 20242 52014 TSNO $ =
2018-08-14 19:46 METAR KGTB 142346Z AUTO 00000KT 10SM BKN022 OVC120 25/23 A2981 RMK AO2 CIG
                 022V120 SLP091 TSNO $ =
2018-08-14 19:41 METAR KGTB 142341Z 00000KT 10SM VCTS SCT023 BKN110 BKN140 25/23 A2981 =
2018-08-14 18:56 METAR KGTB 142256Z AUTO 35004KT 10SM FEW120 SCT150 BKN180 25/24 A2980 RMK AO2
                 TSE26 SLP088 T02470235 TSNO $ =
2018-08-14 18:26 METAR KGTB 142226Z 02004KT 10SM SCT120 BKN170 24/24 A2981 RMK AO2A TSE26 PRESRR
                 SLP092 TSNO $ =
2018-08-14 18:11 METAR KGTB 142211Z 03004KT 10SM TS BKN120 BKN180 24/24 A2979 RMK AO2A TSE11
                 SLP085 TSNO $ =
2018-08-14 17:56 METAR KGTB 142156Z 35004KT 10SM TS FEW014 BKN110 BKN190 24/24 A2979 RMK AO2A
                 SLP085 T02440244 TSNO $ =
2018-08-14 16:56 METAR KGTB 142056Z AUTO 36008KT 10SM FEW032 FEW039 SCT060 SCT080 BKN210 26/24
                 A2977 RMK AO2 SLP078 60000 T02570243 57013 TSNO $ =
2018-08-14 15:56 METAR KGTB 141956Z AUTO 03004KT 10SM FEW055 SCT200 26/24 A2978 RMK AO2 DZB20E33
                 SLP081 P0000 T02550244 TSNO $ =
2018-08-14 15:33 METAR KGTB 141933Z AUTO 04006KT 10SM SCT023 BKN055 BKN120 25/25 A2979 RMK AO2
                 DZB20E33 SLP085 TSNO $ =
2018-08-14 15:30 METAR KGTB 141930Z AUTO 03006KT 10SM -DZ SCT021 SCT110 BKN180 26/25 A2979 RMK
                 AO2 DZB20 SLP085 TSNO $ =
2018-08-14 15:20 METAR KGTB 141920Z AUTO 08005KT 10SM -DZ BKN021 BKN120 BKN150 BKN180 26/23 A2979
                 RMK AO2 DZB20 SLP085 TSNO $ =
2018-08-14 15:16 METAR KGTB 141916Z AUTO 07006KT 10SM BKN021 BKN150 BKN180 26/23 A2979 RMK AO2
                 SLP085 TSNO $ =
2018-08-14 14:56 METAR KGTB 141856Z 01005KT 10SM FEW019 SCT039 SCT060 BKN160 BKN210 25/24 A2980
                 RMK AO2A TSB32E47 SLP088 T02520236 TSNO $ =
2018-08-14 14:47 METAR KGTB 141847Z AUTO 36006KT 10SM SCT039 BKN060 BKN210 25/24 A2980 RMK AO2
                 TSB32E47 SLP088 TSNO $ =
2018-08-14 14:32 METAR KGTB 141832Z 35006KT 10SM TS FEW016 FEW029 BKN040 BKN055 25/24 A2980 RMK
                 SLP088 TSNO $ =
2018-08-14 14:26 METAR KGTB 141826Z 35004KT 10SM SCT016 SCT029 BKN042 BKN055 25/24 A2980 RMK AO2A
                 SLP088 TSNO $ =
2018-08-14 14:16 METAR KGTB 141816Z 02008KT 10SM SCT017 BKN028 BKN046 25/25 A2980 RMK AO2A CIG
                 017V028 CIG 027 RWY21 SLP088 TSNO $ =
2018-08-14 13:56 METAR KGTB 141756Z 35007KT 10SM BKN017 BKN025 OVC047 25/24 A2981 RMK AO2A SLP091
                 60011 T02500241 10253 20213 TSNO $ =
2018-08-14 13:30 METAR KGTB 141730Z AUTO 03007KT 10SM BKN016 25/25 A2981 RMK AO2 BKN V SCT CIG
                 015 RWY21 SLP091 TSNO $ =
2018-08-14 12:56 METAR KGTB 141656Z 01009KT 10SM BKN013 BKN046 OVC055 25/25 A2982 RMK AO2A
                 DZB1558E08 CIG 011V015 SLP095 P0000 T02450245 TSNO $ =
2018-08-14 12:48 METAR KGTB 141648Z 04011KT 10SM SCT010 BKN015 BKN046 OVC060 24/24 A2983 RMK AO2A
                 DZB1558E08 CIG 009V015 SLP098 TSNO $ =
2018-08-14 12:08 METAR KGTB 141608Z 04009KT 10SM BKN010 BKN030 BKN048 OVC055 23/23 A2984 RMK AO2A
                 DZB1558E08 CIG 009 RWY21 SLP102 TSNO $ =
2018-08-14 12:00 METAR KGTB 141600Z 05010KT 10SM -DZ BKN010 BKN030 OVC047 23/23 A2984 RMK AO2A
                 DZB1558 CIG 008V010 CIG 009 RWY21 SLP102 TSNO $ =
2018-08-14 11:56 METAR KGTB 141556Z 06009KT 10SM BKN010 BKN037 OVC047 22/22 A2985 RMK AO2A
                 DZB01E18DZB35E45 CIG 008V012 SLP106 P0000 T02230223 TSNO $ =
2018-08-14 11:44 METAR KGTB 141544Z 05009KT 10SM -DZ SCT008 BKN012 BKN037 OVC045 22/22 A2985 RMK
                 AO2A DZB01E18DZB35 CIG 007V013 CIG 008 RWY21 SLP105 TSNO $ =
2018-08-14 11:24 METAR KGTB 141524Z 04008KT 10SM -DZ BKN007 OVC011 22/22 A2985 RMK AO2A
                 DZB01E18DZB24 CIG 007V009 SLP105 TSNO $ =
2018-08-14 11:16 METAR KGTB 141516Z 06007KT 9SM -DZ BKN009 22/22 A2985 RMK AO2A DZB01 CIG 007V009
                 CIG 007 RWY03 SLP105 TSNO $ =
2018-08-14 10:56 METAR KGTB 141456Z 04005KT 10SM BKN007 BKN037 22/22 A2986 RMK AO2A
                 RAE26DZB26E38DZB40E49 CIG 007V037 SLP109 P0003 60011 T02170217 58001 TSNO $ =
2018-08-14 10:40 METAR KGTB 141440Z 04007KT 10SM -DZ FEW006 BKN016 BKN037 22/22 A2986 RMK AO2A
                 RAE26DZB26E38DZB40 CIG 016V021 SLP109 TSNO $ =
2018-08-14 10:29 METAR KGTB 141429Z 06006KT 10SM -DZ FEW006 BKN021 21/21 A2986 RMK AO2A
                 RAE26DZB26 BKN V OVC CIG 006 RWY03 SLP109 TSNO $ =
2018-08-14 10:09 METAR KGTB 141409Z 05005KT 4SM -RA BR FEW005 21/21 A2986 RMK AO2A SLP109 TSNO $
                 =
2018-08-14 10:06 METAR KGTB 141406Z 06006KT 4SM -RA BR OVC021 21/21 A2986 RMK AO2A CIG 006 RWY03
                 SLP109 TSNO $ =
2018-08-14 09:56 METAR KGTB 141356Z 05005KT 3SM -RA BR OVC021 21/21 A2986 RMK AO2A
                 RAE07DZB07E17RAB17E38DZB38E46RAB46 OVC V BKN SLP109 P0006 T02070207 TSNO $ =
2018-08-14 09:06 METAR KGTB 141306Z AUTO 07007KT 6SM -RA BR FEW006 BKN020 BKN025 22/22 A2987 RMK
                 AO2 CIG 016V020 CIG 006 RWY03 SLP112 TSNO $ =
2018-08-14 08:56 METAR KGTB 141256Z AUTO 08008KT 6SM RA BR FEW005 BKN013 22/22 A2987 RMK AO2
                 RAB51 CIG 005V065 CIG 006 RWY03 SLP112 P0002 T02190219 TSNO $ =
2018-08-14 08:51 METAR KGTB 141251Z AUTO 08009KT 9SM -RA SCT005 22/22 A2987 RMK AO2 RAB51 SLP112
                 TSNO $ =
2018-08-14 08:50 METAR KGTB 141250Z AUTO 08009KT 10SM SCT005 22/22 A2987 RMK AO2 SLP112 TSNO $ =
2018-08-14 08:40 METAR KGTB 141240Z AUTO 07005KT 10SM BKN005 BKN065 22/22 A2987 RMK AO2 CIG
                 005V070 BKN005 V SCT SLP112 TSNO $ =
2018-08-14 08:20 METAR KGTB 141220Z AUTO 07005KT 10SM FEW006 BKN070 22/22 A2986 RMK AO2 SLP109
                 TSNO $ =
2018-08-14 07:56 METAR KGTB 141156Z AUTO 00000KT 10SM CLR 21/21 A2986 RMK AO2 SLP109 60005 70011
                 T02120212 10212 20203 55005 TSNO $ =
2018-08-14 06:56 METAR KGTB 141056Z COR 12003KT 6SM BR SCT006 OVC045 21/21 A2988 RMK DZE0957
                 SLP116 P0000 T02070207 TSNO $ COR 1108 =
2018-08-14 06:34 METAR KGTB 141034Z 14004KT 10SM SCT005 BKN048 21/21 A2988 RMK DZE0957 SLP116
                 TSNO $ =
2018-08-14 06:07 METAR KGTB 141007Z AUTO 13003KT 10SM BKN005 21/21 A2987 RMK AO2 DZE0957 BKN V
                 SCT SLP112 TSNO $ =
2018-08-14 05:57 METAR KGTB 140957Z AUTO 13005KT 10SM SCT005 21/21 A2987 RMK AO2 DZE57 SLP112
                 TSNO $ =
2018-08-14 05:56 METAR KGTB 140956Z AUTO 12005KT 10SM -DZ FEW005 21/21 A2987 RMK AO2
                 RAE14DZB14E19RAB19E29DZB29E34RAB34E49DZB49 SLP112 P0002 T02070207 TSNO $ =
2018-08-14 05:34 METAR KGTB 140934Z AUTO 00000KT 10SM -RA FEW006 21/21 A2987 RMK AO2
                 RAE14DZB14E19RAB19E29DZB29E34RAB34 SLP112 TSNO $ =
2018-08-14 05:27 METAR KGTB 140927Z AUTO 00000KT 10SM CLR 21/21 A2987 RMK AO2 RAE14DZB14E19RAB19
                 SLP112 TSNO $ =
2018-08-14 05:21 METAR KGTB 140921Z AUTO 00000KT 10SM -RA FEW008 21/21 A2987 RMK AO2
                 RAE14DZB14E19RAB19 SLP112 TSNO $ =
2018-08-14 05:16 METAR KGTB 140916Z AUTO 00000KT 10SM -DZ SCT021 21/21 A2987 RMK AO2 RAE14DZB14
                 SLP112 TSNO $ =
2018-08-14 04:56 METAR KGTB 140856Z AUTO 00000KT 6SM RA BR BKN020 20/20 A2988 RMK AO2
                 RAB0756E17DZB17E19DZB21E26RAB26 CIG 004V020 SLP116 P0003 60003 T02040204 57017
                 TSNO $ =
2018-08-14 04:51 METAR KGTB 140851Z AUTO 00000KT 8SM -RA BKN020 20/20 A2988 RMK AO2
                 RAB0756E17DZB17E19DZB21E26RAB26 CIG 004V020 SLP115 TSNO $ =
2018-08-14 04:21 METAR KGTB 140821Z AUTO 00000KT 10SM -DZ FEW007 21/21 A2988 RMK AO2
                 RAB0756E17DZB17E19DZB21 SLP115 TSNO $ =
2018-08-14 04:19 METAR KGTB 140819Z AUTO 00000KT 10SM FEW007 21/21 A2988 RMK AO2
                 RAB0756E17DZB17E19 SLP115 TSNO $ =
2018-08-14 04:04 METAR KGTB 140804Z AUTO 13005KT 10SM -RA FEW006 21/21 A2989 RMK AO2 RAB0756
                 SLP118 TSNO $ =
2018-08-14 03:56 METAR KGTB 140756Z AUTO 00000KT 10SM CLR 21/21 A2989 RMK AO2
                 RAB41E52DZB52E54RAB54 SLP118 P0000 T02070207 TSNO $ =
2018-08-14 03:44 METAR KGTB 140744Z AUTO 00000KT 10SM CLR 21/21 A2989 RMK AO2 RAB41 SLP118 TSNO $
                 =
2018-08-14 03:41 METAR KGTB 140741Z AUTO 00000KT 10SM -RA FEW110 21/21 A2989 RMK AO2 RAB41 SLP118
                 TSNO $ =
2018-08-14 02:56 METAR KGTB 140656Z AUTO 00000KT 10SM BKN120 21/21 A2990 RMK AO2 SLP122 T02070207
                 TSNO $ =
2018-08-14 01:56 METAR KGTB 140556Z AUTO 20003KT 10SM CLR 21/21 A2993 RMK AO2
                 RAB13E25DZB25E28RAB28E39DZB39E43 SLP132 P0001 60001 T02120212 10229 20208 57009
                 TSNO $ =
2018-08-14 01:34 METAR KGTB 140534Z AUTO 14006KT 10SM CLR 21/21 A2993 RMK AO2
                 RAB13E25DZB25E28RAB28 SLP132 TSNO $ =
2018-08-14 01:13 METAR KGTB 140513Z AUTO 00000KT 10SM -RA SCT110 21/21 A2993 RMK AO2 RAB13 SLP132
                 TSNO $ =
2018-08-14 00:56 METAR KGTB 140456Z AUTO 16003KT 10SM FEW110 21/21 A2994 RMK AO2 SLP135 T02130213
                 402750192 TSNO $ =

Support USWX by starting your Amazon purchase here.